Latest Weather Observations for Mullion

IDN60901

Issued at 3:21 am EDT Tuesday 19 October 2021 (issued every 10 minutes, with the page automatically refreshed every 10 minutes)

About weather observations | Map of Canberra area stations | Latest observations for Canberra area | Other Formats
Station Details ID: 250070 Name: MULLION (PCS) Lat: -35.11 Lon: 148.85 Height: 750.0 m

Portable automatic weather stations (PAWS) are operated by other organisations, such as Fire and Emergency Services, and are included here by agreement. Portable stations may be deployed to a location for a short period and their location may be subject to change without notice. Wind observations from these stations are provided from heights of either three (3) or ten (10) metres above ground level (AGL).

Data from the previous 72 hours. | See also: Recent months for locations in Aust Capital Territory
Date/Time
EDT
Temp
°C
App
Temp
°C
Dew
Point
°C
Rel
Hum
%
Delta-T
°C
Wind Press
QNH
hPa
Press
MSL
hPa
Rain since
9am
mm
Dir  Spd
km/h
Gust
km/h
Spd
kts
Gust
kts
19/03:10am 11.9 9.1 8.4 79 1.8 NW 13 15 7 8 1016.4 - 0.0
19/03:00am 12.0 9.2 8.5 79 1.8 NW 13 13 7 7 1016.8 - 0.0
19/02:50am 12.2 9.0 8.3 77 2.0 NW 15 17 8 9 1016.9 - 0.0
19/02:40am 12.3 9.5 8.4 77 2.0 NW 13 15 7 8 1016.9 - 0.0
19/02:30am 12.4 9.9 8.1 75 2.2 NW 11 13 6 7 1016.9 - 0.0
19/02:20am 12.4 9.9 8.2 75 2.2 WNW 11 13 6 7 1017.1 - 0.0
19/02:10am 12.4 9.9 8.2 75 2.2 NW 11 13 6 7 1017.2 - 0.0
19/02:00am 12.6 9.7 8.2 74 2.3 NW 13 13 7 7 1017.2 - 0.0
19/01:50am 12.8 9.9 8.1 73 2.4 NNW 13 13 7 7 1017.2 - 0.0
19/01:40am 12.8 9.9 8.1 73 2.4 NNW 13 15 7 8 1017.1 - 0.0
19/01:30am 12.8 9.9 8.0 72 2.5 NNW 13 15 7 8 1017.2 - 0.0
19/01:20am 12.8 9.4 7.8 71 2.6 NNW 15 15 8 8 1017.4 - 0.0
19/01:10am 12.8 9.8 7.6 70 2.6 NNW 13 13 7 7 1017.6 - 0.0
19/01:00am 13.0 10.0 7.7 70 2.7 NNW 13 15 7 8 1017.8 - 0.0
19/12:50am 13.3 9.4 7.1 66 3.1 NNW 17 17 9 9 1017.8 - 0.0
19/12:40am 13.3 10.2 7.4 67 3.0 N 13 17 7 9 1017.7 - 0.0
19/12:30am 13.3 10.6 7.3 67 3.0 NNW 11 11 6 6 1017.9 - 0.0
19/12:20am 13.6 11.3 7.4 66 3.2 NNW 9 11 5 6 1018.0 - 0.0
19/12:10am 13.8 11.0 6.9 63 3.5 N 11 13 6 7 1018.1 - 0.0
19/12:00am 13.9 11.0 6.7 62 3.6 NNW 11 11 6 6 1018.2 - 0.0
 
Date/Time
EDT
Temp
°C
App
Temp
°C
Dew
Point
°C
Rel
Hum
%
Delta-T
°C
Wind Press
QNH
hPa
Press
MSL
hPa
Rain since
9am
mm
Dir  Spd
km/h
Gust
km/h
Spd
kts
Gust
kts
18/11:50pm 13.9 11.8 6.7 62 3.6 NNW 7 9 4 5 1018.3 - 0.0
18/11:40pm 14.0 11.9 6.6 61 3.7 NW 7 9 4 5 1018.3 - 0.0
18/11:30pm 14.1 11.9 6.4 60 3.9 NW 7 9 4 5 1018.3 - 0.0
18/11:20pm 14.2 11.7 6.4 59 3.9 W 9 13 5 7 1018.3 - 0.0
18/11:10pm 14.4 11.4 6.0 57 4.2 W 11 15 6 8 1018.1 - 0.0
18/11:00pm 14.5 10.0 6.3 58 4.1 W 19 22 10 12 1018.1 - 0.0
18/10:50pm 14.4 9.7 6.0 57 4.2 W 20 26 11 14 1018.2 - 0.0
18/10:40pm 14.4 10.5 7.1 61 3.7 WSW 17 19 9 10 1018.3 - 0.0
18/10:30pm 14.6 10.2 6.5 58 4.1 W 19 26 10 14 1018.5 - 0.0
18/10:20pm 14.9 12.1 6.8 58 4.1 WSW 11 15 6 8 1018.6 - 0.0
18/10:10pm 14.9 10.9 6.7 58 4.2 WSW 17 20 9 11 1018.7 - 0.0
18/10:00pm 14.6 11.6 7.7 63 3.6 WSW 13 15 7 8 1018.7 - 0.0
18/09:50pm 14.4 11.9 8.0 65 3.3 WSW 11 13 6 7 1018.6 - 0.0
18/09:40pm 14.4 11.2 8.5 67 3.1 WSW 15 17 8 9 1018.5 - 0.0
18/09:30pm 14.4 10.8 8.4 67 3.1 W 17 19 9 10 1018.4 - 0.0
18/09:20pm 14.3 10.7 8.3 67 3.1 W 17 19 9 10 1018.3 - 0.0
18/09:10pm 14.2 10.3 8.7 69 2.9 W 19 22 10 12 1018.2 - 0.0
18/09:00pm 14.2 9.9 8.0 66 3.2 WNW 20 22 11 12 1018.0 - 0.0
18/08:50pm 14.7 10.8 8.8 68 3.1 WNW 19 20 10 11 1017.9 - 0.0
18/08:40pm 15.4 12.4 7.6 59 4.0 W 13 19 7 10 1017.8 - 0.0
18/08:30pm 15.2 12.6 7.8 61 3.8 W 11 13 6 7 1017.5 - 0.0
18/08:20pm 15.1 12.7 8.5 64 3.5 WNW 11 13 6 7 1017.4 - 0.0
18/08:10pm 15.1 12.8 8.9 66 3.3 WNW 11 13 6 7 1017.3 - 0.0
18/08:00pm 15.2 12.4 8.5 64 3.5 NW 13 13 7 7 1017.1 - 0.0
18/07:50pm 15.3 12.3 7.8 61 3.9 NW 13 17 7 9 1016.8 - 0.0
18/07:40pm 15.5 11.7 7.5 59 4.1 NW 17 17 9 9 1016.7 - 0.0
18/07:30pm 15.5 12.2 7.9 60 4.0 NW 15 17 8 9 1016.6 - 0.0
18/07:20pm 15.7 12.4 8.2 61 3.9 NW 15 17 8 9 1016.6 - 0.0
18/07:10pm 15.8 12.6 8.5 62 3.9 NW 15 17 8 9 1016.5 - 0.0
18/07:00pm 16.2 13.4 8.6 60 4.0 NW 13 13 7 7 1016.5 - 0.0
18/06:50pm 16.5 13.7 8.4 58 4.3 NW 13 15 7 8 1016.5 - 0.0
18/06:40pm 16.5 12.9 8.3 58 4.3 WNW 17 20 9 11 1016.4 - 0.0
18/06:30pm 16.5 12.4 7.8 56 4.6 WNW 19 22 10 12 1016.4 - 0.0
18/06:20pm 16.4 12.0 7.6 56 4.6 WNW 20 22 11 12 1016.3 - 0.0
18/06:10pm 16.3 12.6 8.1 58 4.3 WNW 17 20 9 11 1016.3 - 0.0
18/06:00pm 16.5 12.3 8.1 57 4.4 WNW 20 24 11 13 1016.3 - 0.0
18/05:50pm 16.6 12.0 8.3 58 4.4 WNW 22 26 12 14 1016.2 - 0.0
18/05:40pm 16.7 12.2 8.5 58 4.4 W 22 26 12 14 1016.3 - 0.0
18/05:30pm 16.8 10.9 7.5 54 4.9 W 28 33 15 18 1016.1 - 0.0
18/05:20pm 17.0 11.9 7.6 54 4.9 W 24 26 13 14 1016.1 - 0.0
18/05:10pm 16.9 11.4 7.7 54 4.8 WNW 26 30 14 16 1016.1 - 0.0
18/05:00pm 16.7 10.0 7.4 54 4.8 WNW 32 33 17 18 1016.1 - 0.0
18/04:50pm 16.8 10.5 7.4 54 4.9 WNW 30 37 16 20 1016.2 - 0.0
18/04:40pm 17.1 11.2 7.7 54 4.9 WNW 28 32 15 17 1016.1 - 0.0
18/04:30pm 17.0 10.7 7.3 53 5.0 W 30 33 16 18 1016.0 - 0.0
18/04:20pm 17.0 10.3 5.8 47 5.7 W 30 41 16 22 1016.1 - 0.0
18/04:10pm 17.6 11.3 7.3 51 5.4 W 30 35 16 19 1016.3 - 0.0
18/04:00pm 17.8 11.0 6.9 49 5.7 WNW 32 41 17 22 1016.3 - 0.0
18/03:50pm 17.6 11.3 7.6 52 5.3 W 30 37 16 20 1016.1 - 0.0
18/03:40pm 18.0 12.7 6.9 48 5.8 W 24 28 13 15 1016.1 - 0.0
18/03:30pm 17.8 11.3 6.3 47 5.9 W 30 33 16 18 1016.2 - 0.0
18/03:20pm 17.8 10.2 5.6 44 6.2 W 35 41 19 22 1016.4 - 0.0
18/03:10pm 17.9 11.1 6.9 48 5.7 W 32 35 17 19 1016.3 - 0.0
18/03:00pm 18.3 12.7 7.0 47 5.9 W 26 33 14 18 1016.4 - 0.0
18/02:50pm 17.8 11.0 5.0 43 6.4 W 30 37 16 20 1016.6 - 0.0
18/02:40pm 17.4 8.6 3.7 40 6.7 W 39 46 21 25 1016.8 - 0.0
18/02:30pm 17.7 10.5 5.1 43 6.3 W 32 39 17 21 1016.7 - 0.0
18/02:20pm 17.5 10.5 6.9 49 5.5 WNW 33 39 18 21 1016.5 - 0.0
18/02:10pm 17.4 9.5 6.2 47 5.7 WNW 37 43 20 23 1016.8 - 0.0
18/02:00pm 17.5 10.4 6.6 48 5.6 WNW 33 41 18 22 1016.8 - 0.0
18/01:50pm 17.4 9.1 6.1 47 5.8 WNW 39 43 21 23 1016.8 - 0.0
18/01:40pm 17.3 8.9 5.8 46 5.8 WNW 39 46 21 25 1017.0 - 0.0
18/01:30pm 17.1 9.1 5.7 47 5.7 WNW 37 44 20 24 1016.7 - 0.0
18/01:20pm 17.1 9.2 6.0 48 5.6 WNW 37 44 20 24 1017.0 - 0.0
18/01:10pm 16.9 9.0 6.3 49 5.4 W 37 43 20 23 1017.5 - 0.0
18/01:00pm 16.9 10.1 7.8 55 4.8 W 33 39 18 21 1017.5 - 0.0
18/12:50pm 16.7 9.4 7.1 53 5.0 W 35 46 19 25 1017.5 - 0.0
18/12:40pm 16.6 9.3 7.0 53 5.0 WNW 35 39 19 21 1017.5 - 0.0
18/12:30pm 16.3 9.3 6.8 53 4.9 WNW 33 39 18 21 1017.6 - 0.0
18/12:20pm 16.4 11.6 8.7 60 4.1 NW 24 30 13 16 1017.6 - 0.0
18/12:10pm 16.1 11.3 8.9 62 3.8 NW 24 30 13 16 1017.6 - 0.0
18/12:00pm 15.9 10.9 8.2 60 4.0 WNW 24 28 13 15 1017.8 - 0.0
18/11:50am 15.8 10.5 8.5 62 3.9 NW 26 30 14 16 1018.0 - 0.0
18/11:40am 15.4 9.3 8.3 62 3.7 NW 30 35 16 19 1018.1 - 0.0
18/11:30am 15.3 9.7 8.9 65 3.4 NW 28 32 15 17 1017.9 - 0.0
18/11:20am 15.2 9.9 8.5 64 3.5 NW 26 32 14 17 1018.0 - 0.0
18/11:10am 14.6 8.6 8.6 67 3.2 NNW 30 37 16 20 1018.1 - 0.0
18/11:00am 14.4 8.5 9.1 70 2.8 NNW 30 32 16 17 1018.0 - 0.0
18/10:50am 14.1 9.0 9.2 72 2.6 NNW 26 30 14 16 1018.2 - 0.0
18/10:40am 13.5 9.1 10.5 82 1.6 NNW 24 26 13 14 1018.3 - 0.0
18/10:30am 12.9 8.7 9.8 81 1.7 NW 22 26 12 14 1018.4 - 0.0
18/10:20am 12.4 9.2 10.0 85 1.3 NNW 17 20 9 11 1018.4 - 0.0
18/10:10am 12.0 9.3 10.2 89 1.0 NW 15 19 8 10 1018.4 - 0.0
18/10:00am 11.9 9.0 9.7 86 1.2 NW 15 19 8 10 1018.5 - 0.0
18/09:50am 11.9 9.2 9.1 83 1.5 NW 13 17 7 9 1018.4 - 0.0
18/09:40am 11.8 9.7 9.6 86 1.2 NW 11 15 6 8 1018.4 - 0.0
18/09:30am 11.7 9.8 8.9 83 1.5 NW 9 11 5 6 1018.4 - 0.0
18/09:20am 11.2 8.7 8.0 81 1.6 WNW 11 11 6 6 1018.3 - 0.0
18/09:10am 10.9 8.5 8.6 86 1.2 WNW 11 13 6 7 1018.3 - 0.0
18/09:00am 10.6 8.1 8.3 86 1.2 WNW 11 13 6 7 1018.3 - 0.0
18/08:50am 10.4 7.9 8.4 87 1.0 WNW 11 13 6 7 1018.4 - 0.0
18/08:40am 10.5 8.0 8.2 86 1.2 WNW 11 11 6 6 1018.2 - 0.0
18/08:30am 10.5 8.3 7.8 83 1.4 WNW 9 11 5 6 1018.2 - 0.0
18/08:20am 10.4 8.1 7.3 81 1.5 WNW 9 9 5 5 1018.2 - 0.0
18/08:10am 10.3 8.0 7.3 82 1.5 WNW 9 11 5 6 1018.2 - 0.0
18/08:00am 10.3 7.4 6.4 77 1.9 WNW 11 11 6 6 1018.2 - 0.0
18/07:50am 10.0 7.0 6.1 77 1.9 WNW 11 11 6 6 1018.2 - 0.0
18/07:40am 9.7 6.3 5.9 77 1.8 WNW 13 13 7 7 1018.1 - 0.0
18/07:30am 9.3 5.5 5.7 78 1.7 WNW 15 15 8 8 1017.9 - 0.0
18/07:20am 9.2 5.7 5.5 78 1.8 WNW 13 15 7 8 1018.0 - 0.0
18/07:10am 8.8 5.3 5.5 80 1.6 WNW 13 13 7 7 1017.9 - 0.0
18/07:00am 8.5 5.0 5.4 81 1.5 WNW 13 13 7 7 1017.8 - 0.0
18/06:50am 8.4 4.9 5.4 81 1.4 WNW 13 15 7 8 1017.7 - 0.0
18/06:40am 8.6 4.7 5.4 80 1.5 WNW 15 15 8 8 1017.6 - 0.0
18/06:30am 8.7 4.8 5.4 80 1.6 NW 15 15 8 8 1017.4 - 0.0
18/06:20am 8.5 4.9 5.2 80 1.5 WNW 13 15 7 8 1017.3 - 0.0
18/06:10am 8.1 4.6 5.3 82 1.3 WNW 13 15 7 8 1017.1 - 0.0
18/06:00am 8.0 4.1 5.4 84 1.2 WNW 15 15 8 8 1017.0 - 0.0
18/05:50am 7.9 4.4 5.3 84 1.2 WNW 13 15 7 8 1016.9 - 0.0
18/05:40am 7.9 4.4 5.3 84 1.2 WNW 13 15 7 8 1016.9 - 0.0
18/05:30am 8.2 4.7 5.5 83 1.3 WNW 13 13 7 7 1016.8 - 0.0
18/05:20am 8.5 5.4 5.5 81 1.4 WNW 11 13 6 7 1016.7 - 0.0
18/05:10am 8.5 5.4 5.4 81 1.5 WNW 11 13 6 7 1016.7 - 0.0
18/05:00am 8.6 5.1 5.3 80 1.6 WNW 13 13 7 7 1016.8 - 0.0
18/04:50am 8.7 4.8 5.3 79 1.6 WNW 15 15 8 8 1016.8 - 0.0
18/04:40am 8.5 4.6 5.2 80 1.5 W 15 15 8 8 1016.7 - 0.0
18/04:30am 8.5 4.2 5.2 80 1.5 W 17 17 9 9 1016.6 - 0.0
18/04:20am 8.2 4.3 5.2 81 1.4 W 15 17 8 9 1016.6 - 0.0
18/04:10am 8.2 4.3 5.4 82 1.3 W 15 15 8 8 1016.7 - 0.0
18/04:00am 8.5 4.6 5.3 80 1.5 W 15 15 8 8 1016.7 - 0.0
18/03:50am 8.7 4.8 5.3 79 1.6 W 15 15 8 8 1016.8 - 0.0
18/03:40am 9.0 5.1 5.4 78 1.7 W 15 15 8 8 1016.8 - 0.0
18/03:30am 9.1 5.2 5.3 77 1.8 W 15 17 8 9 1016.8 - 0.0
18/03:20am 9.1 5.2 5.4 77 1.7 W 15 17 8 9 1016.9 - 0.0
18/03:10am 9.1 5.2 5.3 77 1.8 W 15 15 8 8 1017.0 - 0.0
18/03:00am 9.0 5.1 5.3 77 1.7 W 15 15 8 8 1017.0 - 0.0
18/02:50am 8.9 5.0 5.4 79 1.7 W 15 15 8 8 1017.1 - 0.0
18/02:40am 8.9 5.0 5.4 79 1.7 W 15 17 8 9 1017.2 - 0.0
18/02:30am 9.1 4.9 5.5 78 1.7 W 17 19 9 10 1017.2 - 0.0
18/02:20am 9.2 4.9 5.4 77 1.8 W 17 19 9 10 1017.2 - 0.0
18/02:10am 9.1 4.9 5.6 79 1.7 W 17 17 9 9 1017.4 - 0.0
18/02:00am 9.4 5.2 5.5 76 1.9 W 17 17 9 9 1017.5 - 0.0
18/01:50am 9.3 5.4 5.4 76 1.8 W 15 17 8 9 1017.6 - 0.0
18/01:40am 9.1 5.2 5.4 77 1.7 W 15 15 8 8 1017.5 - 0.0
18/01:30am 9.0 5.1 5.5 79 1.7 WNW 15 15 8 8 1017.6 - 0.0
18/01:20am 9.1 5.2 5.4 77 1.7 W 15 17 8 9 1017.7 - 0.0
18/01:10am 8.9 5.0 5.4 79 1.7 W 15 15 8 8 1017.7 - 0.0
18/01:00am 8.7 5.3 5.7 81 1.4 WNW 13 15 7 8 1017.7 - 0.0
18/12:50am 8.9 5.1 5.7 80 1.5 NW 15 15 8 8 1017.6 - 0.0
18/12:40am 8.8 5.4 5.7 81 1.5 NW 13 15 7 8 1017.7 - 0.0
18/12:30am 8.9 5.5 5.8 81 1.5 NW 13 13 7 7 1017.6 - 0.0
18/12:20am 9.1 6.1 6.0 81 1.5 NW 11 13 6 7 1017.6 - 0.0
18/12:10am 9.3 6.7 5.9 79 1.6 NW 9 11 5 6 1017.5 - 0.0
18/12:00am 9.6 6.6 5.8 77 1.8 WNW 11 13 6 7 1017.5 - 0.0
 
Date/Time
EDT
Temp
°C
App
Temp
°C
Dew
Point
°C
Rel
Hum
%
Delta-T
°C
Wind Press
QNH
hPa
Press
MSL
hPa
Rain since
9am
mm
Dir  Spd
km/h
Gust
km/h
Spd
kts
Gust
kts
17/11:50pm 9.7 6.7 5.8 77 1.9 NW 11 13 6 7 1017.4 - 0.0
17/11:40pm 9.7 6.2 5.5 75 2.0 WNW 13 15 7 8 1017.4 - 0.0
17/11:30pm 9.4 6.3 5.6 77 1.8 NW 11 13 6 7 1017.4 - 0.0
17/11:20pm 9.5 6.4 5.5 76 1.9 NW 11 13 6 7 1017.3 - 0.0
17/11:10pm 9.7 6.6 5.5 75 2.0 NW 11 13 6 7 1017.3 - 0.0
17/11:00pm 9.8 6.3 5.4 74 2.1 WNW 13 15 7 8 1017.3 - 0.0
17/10:50pm 9.8 6.0 5.6 75 2.0 W 15 17 8 9 1017.3 - 0.0
17/10:40pm 10.3 6.1 5.6 72 2.3 WNW 17 19 9 10 1017.4 - 0.0
17/10:30pm 10.8 6.5 5.2 68 2.7 W 17 19 9 10 1017.4 - 0.0
17/10:20pm 10.8 6.5 5.1 68 2.7 WNW 17 17 9 9 1017.4 - 0.0
17/10:10pm 11.0 6.3 5.1 67 2.8 W 19 20 10 11 1017.4 - 0.0
17/10:00pm 11.1 6.8 5.2 67 2.8 W 17 22 9 12 1017.4 - 0.0
17/09:50pm 10.9 6.6 5.1 67 2.8 W 17 19 9 10 1017.4 - 0.0
17/09:40pm 10.9 6.6 5.1 67 2.8 W 17 19 9 10 1017.3 - 0.0
17/09:30pm 10.6 5.7 5.3 70 2.5 W 20 22 11 12 1017.2 - 0.0
17/09:20pm 10.6 5.8 5.6 71 2.4 WNW 20 22 11 12 1017.1 - 0.0
17/09:10pm 10.8 6.0 5.5 70 2.5 WNW 20 22 11 12 1017.2 - 0.0
17/09:00pm 10.9 6.1 5.6 70 2.6 WNW 20 20 11 11 1017.2 - 0.0
17/08:50pm 10.9 6.2 5.9 71 2.4 WNW 20 22 11 12 1017.0 - 0.0
17/08:40pm 10.8 6.0 5.8 71 2.4 WNW 20 22 11 12 1016.9 - 0.0
17/08:30pm 10.9 6.2 6.0 72 2.4 WNW 20 22 11 12 1016.9 - 0.0
17/08:20pm 11.0 5.9 5.9 71 2.5 WNW 22 24 12 13 1016.8 - 0.0
17/08:10pm 11.3 6.2 6.0 70 2.6 WNW 22 26 12 14 1016.7 - 0.0
17/08:00pm 11.6 6.0 5.4 65 3.0 W 24 26 13 14 1016.8 - 0.0
17/07:50pm 11.7 5.4 5.8 67 2.9 W 28 32 15 17 1016.5 - 0.0
17/07:40pm 11.8 4.8 5.8 66 2.9 WNW 32 33 17 18 1016.4 - 0.0
17/07:30pm 12.2 4.9 5.6 64 3.2 WNW 33 35 18 19 1016.2 - 0.0
17/07:20pm 12.2 5.2 5.9 65 3.1 WNW 32 33 17 18 1015.9 - 0.0
17/07:10pm 12.5 5.5 6.0 64 3.2 WNW 32 39 17 21 1015.8 - 0.0
17/07:00pm 12.9 5.7 5.8 62 3.5 WNW 33 39 18 21 1015.9 - 0.0
17/06:50pm 13.1 5.9 5.9 61 3.5 WNW 33 39 18 21 1015.8 - 0.0
17/06:40pm 13.4 6.4 6.2 61 3.6 NW 32 37 17 20 1015.7 - 0.0
17/06:30pm 13.5 6.3 6.1 61 3.7 NW 33 37 18 20 1015.6 - 0.0
17/06:20pm 13.7 6.7 6.0 59 3.8 NW 32 35 17 19 1015.3 - 0.0
17/06:10pm 13.9 7.4 6.5 61 3.7 NW 30 35 16 19 1015.2 - 0.0
17/06:00pm 14.1 7.6 6.4 60 3.9 NW 30 32 16 17 1015.0 - 0.0
17/05:50pm 14.3 7.7 6.1 58 4.1 NW 30 33 16 18 1014.9 - 0.0
17/05:40pm 14.3 8.1 6.0 57 4.1 NW 28 37 15 20 1014.8 - 0.0
17/05:30pm 14.3 7.3 6.1 58 4.1 NW 32 37 17 20 1014.6 - 0.0
17/05:20pm 14.5 7.5 5.9 56 4.3 NW 32 35 17 19 1014.8 - 0.0
17/05:10pm 15.0 9.8 7.4 60 3.9 WNW 24 28 13 15 1014.8 - 0.0
17/05:00pm 14.5 8.5 7.2 61 3.7 NW 28 32 15 17 1014.6 - 0.0
17/04:50pm 14.5 8.0 6.5 58 4.0 WNW 30 37 16 20 1014.7 - 0.0
17/04:40pm 14.5 7.1 5.2 53 4.6 WNW 33 39 18 21 1014.6 - 0.0
17/04:30pm 14.4 7.0 6.8 60 3.8 WNW 35 41 19 22 1014.4 - 0.0
17/04:20pm 14.4 7.1 7.4 63 3.6 WNW 35 41 19 22 1014.7 - 0.0
17/04:10pm 14.7 7.6 6.6 58 4.1 WNW 33 37 18 20 1014.6 - 0.0
17/04:00pm 14.8 7.8 6.8 58 4.1 WNW 33 43 18 23 1014.7 - 0.0
17/03:50pm 14.7 7.5 6.0 56 4.3 WNW 33 41 18 22 1014.5 - 0.0
17/03:40pm 14.7 7.6 6.5 58 4.1 WNW 33 35 18 19 1014.8 - 0.0
17/03:30pm 15.0 8.5 6.5 57 4.3 WNW 30 35 16 19 1014.4 - 0.0
17/03:20pm 14.9 7.7 5.9 55 4.5 NW 33 39 18 21 1014.6 - 0.0
17/03:10pm 14.9 8.1 6.8 58 4.1 NW 32 39 17 21 1014.6 - 0.0
17/03:00pm 15.0 9.0 7.1 59 4.0 NW 28 33 15 18 1014.7 - 0.0
17/02:50pm 15.2 9.1 6.4 55 4.4 NW 28 33 15 18 1014.7 - 0.0
17/02:40pm 15.0 9.2 6.2 55 4.4 NW 26 32 14 17 1014.6 - 0.0
17/02:30pm 15.0 9.2 6.4 56 4.3 NW 26 32 14 17 1014.9 - 0.0
17/02:20pm 14.8 9.1 6.7 58 4.1 NNW 26 32 14 17 1014.8 - 0.0
17/02:10pm 14.6 8.6 5.5 54 4.5 NW 26 32 14 17 1014.7 - 0.0
17/02:00pm 14.5 8.4 6.4 58 4.1 NW 28 35 15 19 1014.9 - 0.0
17/01:50pm 14.7 9.6 5.8 55 4.4 WNW 22 30 12 16 1015.0 - 0.0
17/01:40pm 14.3 8.0 5.5 55 4.3 NW 28 37 15 20 1015.1 - 0.0
17/01:30pm 14.3 8.4 6.0 57 4.1 NW 26 32 14 17 1015.0 - 0.0
17/01:20pm 14.2 8.8 6.5 60 3.9 NW 24 26 13 14 1015.0 - 0.0
17/01:10pm 14.2 9.3 6.7 60 3.8 NW 22 26 12 14 1015.2 - 0.0
17/01:00pm 13.8 8.4 6.2 60 3.8 WNW 24 28 13 15 1015.3 - 0.0
17/12:50pm 13.7 7.7 5.2 56 4.1 WNW 26 30 14 16 1015.4 - 0.0
17/12:40pm 13.7 7.4 3.8 51 4.7 WNW 26 30 14 16 1015.5 - 0.0
17/12:30pm 13.4 6.3 3.4 50 4.7 WNW 30 35 16 19 1015.6 - 0.0
17/12:20pm 13.6 7.4 4.2 53 4.5 WNW 26 32 14 17 1015.9 - 0.0
17/12:10pm 13.1 7.0 4.6 56 4.1 WNW 26 33 14 18 1015.7 - 0.0
17/12:00pm 13.1 6.8 3.9 53 4.3 WNW 26 32 14 17 1015.9 - 0.0
17/11:50am 13.0 6.7 5.6 61 3.6 WNW 28 30 15 16 1016.0 - 0.0
17/11:40am 13.2 7.8 4.7 56 4.1 NW 22 28 12 15 1016.0 - 0.0
17/11:30am 12.7 7.6 6.0 63 3.3 WNW 22 26 12 14 1016.0 - 0.0
17/11:20am 12.3 7.3 6.3 67 3.0 NW 22 26 12 14 1015.9 - 0.0
17/11:10am 12.1 7.9 7.3 72 2.4 WNW 19 24 10 13 1016.0 - 0.0
17/11:00am 11.9 7.3 6.4 69 2.7 WNW 20 22 11 12 1016.1 - 0.0
17/10:50am 11.5 6.7 5.6 67 2.9 WNW 20 24 11 13 1016.1 - 0.0
17/10:40am 11.2 5.9 5.2 66 2.9 WNW 22 24 12 13 1016.1 - 0.0
17/10:30am 11.1 5.5 5.2 67 2.8 WNW 24 26 13 14 1016.2 - 0.0
17/10:20am 10.9 6.0 5.2 68 2.7 WNW 20 24 11 13 1016.1 - 0.0
17/10:10am 11.0 6.8 5.6 69 2.6 WNW 17 19 9 10 1016.1 - 0.0
17/10:00am 10.7 6.6 6.1 73 2.2 NW 17 20 9 11 1016.0 - 0.0
17/09:50am 10.4 5.7 5.0 69 2.6 WNW 19 24 10 13 1016.0 - 0.0
17/09:40am 10.0 5.8 5.8 75 2.0 WNW 17 22 9 12 1016.1 - 0.0
17/09:30am 10.0 6.7 6.2 77 1.8 WNW 13 17 7 9 1016.1 - 0.0
17/09:20am 9.3 5.3 6.7 84 1.3 W 17 20 9 11 1016.1 - 0.0
17/09:10am 9.0 4.9 6.1 82 1.4 WNW 17 20 9 11 1015.9 - 0.0
17/09:00am 8.6 4.3 5.2 79 1.6 NNW 17 22 9 12 1016.1 - 0.2
17/08:50am 8.1 3.6 6.2 88 0.9 NNW 19 22 10 12 1015.8 - 0.2
17/08:40am 8.0 4.2 5.9 86 1.0 NNW 15 19 8 10 1015.7 - 0.2
17/08:30am 7.6 3.9 6.1 90 0.7 NNW 15 19 8 10 1015.6 - 0.2
17/08:20am 7.3 3.8 5.4 88 0.9 NNW 13 17 7 9 1015.4 - 0.2
17/08:10am 7.2 3.8 3.8 79 1.5 NNW 11 13 6 7 1015.4 - 0.2
17/08:00am 6.9 3.8 5.5 91 0.7 N 11 13 6 7 1015.3 - 0.2
17/07:50am 6.5 3.2 4.8 89 0.8 N 11 17 6 9 1015.2 - 0.2
17/07:40am 6.4 3.1 4.6 88 0.8 N 11 13 6 7 1015.0 - 0.2
17/07:30am 6.0 3.0 4.3 89 0.8 N 9 13 5 7 1014.9 - 0.2
17/07:20am 6.2 2.8 4.1 86 0.9 N 11 13 6 7 1014.8 - 0.2
17/07:10am 5.9 2.4 3.6 85 1.0 N 11 15 6 8 1014.7 - 0.2
17/07:00am 5.7 2.3 4.0 89 0.8 N 11 13 6 7 1014.6 - 0.2
17/06:50am 5.9 2.5 4.0 88 0.8 N 11 13 6 7 1014.4 - 0.2
17/06:40am 6.0 2.1 3.4 83 1.1 N 13 17 7 9 1014.4 - 0.2
17/06:30am 5.9 2.4 3.4 84 1.1 N 11 15 6 8 1014.2 - 0.2
17/06:20am 5.8 3.1 3.5 85 1.0 N 7 11 4 6 1014.0 - 0.2
17/06:10am 5.9 3.0 2.6 79 1.4 NNW 7 13 4 7 1013.9 - 0.2
17/06:00am 5.3 2.8 3.7 89 0.7 NE 6 9 3 5 1013.7 - 0.2
17/05:50am 5.4 2.7 2.7 83 1.2 NNW 6 9 3 5 1013.6 - 0.2
17/05:40am 5.1 2.4 2.8 85 1.0 N 6 7 3 4 1013.5 - 0.2
17/05:30am 5.0 2.4 3.3 89 0.7 N 6 7 3 4 1013.2 - 0.2
17/05:20am 5.2 2.6 3.1 86 0.9 NNW 6 7 3 4 1013.2 - 0.2
17/05:10am 5.6 3.0 3.2 84 1.0 N 6 9 3 5 1013.0 - 0.2
17/05:00am 5.7 3.1 3.1 83 1.1 N 6 9 3 5 1012.9 - 0.2
17/04:50am 6.0 3.4 3.2 82 1.2 NW 6 9 3 5 1012.8 - 0.2
17/04:40am 6.2 2.6 2.7 78 1.5 W 11 15 6 8 1012.8 - 0.2
17/04:30am 5.9 3.0 2.8 80 1.3 WNW 7 13 4 7 1012.6 - 0.2
17/04:20am 6.0 2.8 2.9 80 1.3 W 9 17 5 9 1012.6 - 0.2
17/04:10am 6.1 2.5 3.1 81 1.3 W 11 15 6 8 1012.5 - 0.2
17/04:00am 6.1 2.9 3.2 82 1.3 W 9 11 5 6 1012.4 - 0.2
17/03:50am 6.4 3.2 3.3 80 1.4 W 9 13 5 7 1012.4 - 0.2
17/03:40am 6.7 1.9 2.7 75 1.7 W 17 22 9 12 1012.5 - 0.2
17/03:30am 6.6 0.9 2.9 77 1.6 WSW 22 28 12 15 1012.3 - 0.2
17/03:20am 6.6 -0.2 3.1 78 1.5 WSW 28 33 15 18 1012.1 - 0.2
17/03:10am 7.1 -0.7 3.1 76 1.8 W 33 39 18 21 1011.9 - 0.2
17/03:00am 7.1 -1.0 3.1 76 1.8 W 35 39 19 21 1012.1 - 0.2
17/02:50am 7.1 -0.7 3.1 76 1.8 W 33 35 18 19 1012.1 - 0.2
17/02:40am 6.9 0.5 3.2 77 1.6 W 26 30 14 16 1012.1 - 0.2
17/02:30am 7.0 1.0 3.4 78 1.6 W 24 26 13 14 1012.2 - 0.2
17/02:20am 7.2 1.2 3.4 77 1.7 W 24 28 13 15 1012.1 - 0.2
17/02:10am 7.1 0.7 3.3 77 1.7 W 26 28 14 15 1012.0 - 0.2
17/02:00am 7.2 0.1 3.4 77 1.7 W 30 32 16 17 1012.2 - 0.2
17/01:50am 7.2 0.1 3.6 78 1.6 W 30 33 16 18 1012.2 - 0.2
17/01:40am 7.4 0.0 3.8 78 1.6 W 32 33 17 18 1012.3 - 0.2
17/01:30am 7.6 0.0 3.8 77 1.7 W 33 37 18 20 1012.3 - 0.2
17/01:20am 7.5 0.8 3.6 76 1.7 WNW 28 32 15 17 1012.5 - 0.2
17/01:10am 7.6 1.3 3.8 77 1.7 W 26 32 14 17 1012.5 - 0.2
17/01:00am 7.6 1.6 3.1 73 2.0 W 24 33 13 18 1012.7 - 0.2
17/12:50am 7.6 2.4 3.6 76 1.8 WNW 20 24 11 13 1012.6 - 0.2
17/12:40am 7.9 4.1 3.9 76 1.8 WNW 13 22 7 12 1012.7 - 0.2
17/12:30am 8.4 3.1 3.2 70 2.3 W 20 22 11 12 1012.7 - 0.2
17/12:20am 8.6 3.6 3.5 70 2.3 W 19 26 10 14 1012.8 - 0.2
17/12:10am 8.6 3.9 3.4 70 2.3 WNW 17 20 9 11 1012.8 - 0.2
17/12:00am 8.7 4.0 3.1 68 2.5 W 17 20 9 11 1012.8 - 0.2
 
Date/Time
EDT
Temp
°C
App
Temp
°C
Dew
Point
°C
Rel
Hum
%
Delta-T
°C
Wind Press
QNH
hPa
Press
MSL
hPa
Rain since
9am
mm
Dir  Spd
km/h
Gust
km/h
Spd
kts
Gust
kts
16/11:50pm 8.8 2.4 3.2 68 2.5 W 26 30 14 16 1012.8 - 0.2
16/11:40pm 9.0 3.0 3.2 67 2.6 W 24 30 13 16 1012.8 - 0.2
16/11:30pm 9.2 3.3 3.9 69 2.4 W 24 33 13 18 1012.7 - 0.2
16/11:20pm 9.3 2.2 3.4 66 2.7 W 30 35 16 19 1012.5 - 0.2
16/11:10pm 9.3 2.3 3.9 69 2.5 W 30 39 16 21 1012.3 - 0.2
16/11:00pm 9.4 1.5 4.1 69 2.4 W 35 43 19 23 1012.3 - 0.2
16/10:50pm 9.2 2.2 4.2 71 2.3 W 30 33 16 18 1012.1 - 0.2
16/10:40pm 9.3 2.0 4.7 73 2.1 W 32 37 17 20 1012.2 - 0.2
16/10:30pm 9.4 1.5 4.4 71 2.3 W 35 43 19 23 1012.3 - 0.2
16/10:20pm 9.6 2.0 3.7 66 2.7 W 33 44 18 24 1012.2 - 0.2
16/10:10pm 9.7 2.8 4.5 70 2.4 W 30 43 16 23 1012.0 - 0.2
16/10:00pm 9.8 3.7 4.8 71 2.3 W 26 33 14 18 1012.2 - 0.2
16/09:50pm 9.9 3.0 4.7 70 2.4 WNW 30 39 16 21 1012.1 - 0.2
16/09:40pm 10.0 4.0 5.1 71 2.3 W 26 37 14 20 1011.9 - 0.2
16/09:30pm 10.0 4.3 5.0 71 2.4 W 24 33 13 18 1011.9 - 0.2
16/09:20pm 10.1 4.9 5.6 73 2.2 WNW 22 24 12 13 1011.8 - 0.2
16/09:10pm 10.1 4.9 5.4 72 2.2 NW 22 26 12 14 1011.4 - 0.2
16/09:00pm 10.3 4.7 5.5 72 2.3 WNW 24 35 13 19 1011.3 - 0.2
16/08:50pm 10.4 4.4 5.3 70 2.4 WNW 26 39 14 21 1011.4 - 0.2
16/08:40pm 10.3 5.1 5.4 71 2.3 NW 22 28 12 15 1011.1 - 0.2
16/08:30pm 10.2 5.0 5.4 72 2.3 WNW 22 28 12 15 1010.9 - 0.2
16/08:20pm 10.2 5.6 5.4 72 2.3 WNW 19 26 10 14 1010.9 - 0.2
16/08:10pm 10.3 5.7 5.4 71 2.3 WNW 19 22 10 12 1010.6 - 0.2
16/08:00pm 10.5 5.7 5.5 71 2.4 WNW 20 24 11 13 1010.4 - 0.2
16/07:50pm 10.7 5.1 5.6 71 2.5 WNW 24 30 13 16 1010.2 - 0.2
16/07:40pm 10.8 5.2 5.5 70 2.5 WNW 24 33 13 18 1010.2 - 0.2
16/07:30pm 10.9 5.7 5.4 69 2.6 WNW 22 30 12 16 1009.9 - 0.2
16/07:20pm 11.2 5.3 6.0 70 2.5 WNW 26 30 14 16 1009.7 - 0.2
16/07:10pm 11.3 6.1 5.6 68 2.8 WNW 22 30 12 16 1009.6 - 0.2
16/07:00pm 11.5 5.3 6.0 69 2.7 W 28 33 15 18 1009.4 - 0.2
16/06:50pm 11.6 5.2 5.2 65 3.1 WNW 28 39 15 21 1009.4 - 0.2
16/06:40pm 11.8 5.5 5.9 67 2.9 W 28 35 15 19 1009.1 - 0.2
16/06:30pm 12.0 4.9 6.2 67 2.9 WNW 33 41 18 22 1008.9 - 0.2
16/06:20pm 12.3 5.2 6.4 67 2.9 W 33 44 18 24 1008.5 - 0.2
16/06:10pm 12.6 5.6 6.7 67 2.9 W 33 46 18 25 1008.4 - 0.2
16/06:00pm 12.8 5.9 6.3 64 3.2 W 32 46 17 25 1008.0 - 0.2
16/05:50pm 12.8 4.5 6.2 64 3.3 W 39 52 21 28 1007.8 - 0.2
16/05:40pm 12.9 4.6 6.3 64 3.3 W 39 44 21 24 1007.6 - 0.2
16/05:30pm 13.3 6.8 6.6 64 3.4 W 30 46 16 25 1007.7 - 0.2
16/05:20pm 13.0 4.7 6.0 62 3.5 W 39 44 21 24 1007.5 - 0.2
16/05:10pm 13.0 3.7 5.9 62 3.5 W 44 50 24 27 1007.3 - 0.2
16/05:00pm 13.2 5.6 6.0 61 3.6 W 35 43 19 23 1007.3 - 0.2
16/04:50pm 13.0 5.2 6.5 64 3.2 W 37 46 20 25 1007.0 - 0.2
16/04:40pm 13.1 4.9 6.5 64 3.3 W 39 46 21 25 1007.1 - 0.2
16/04:30pm 13.0 4.3 6.2 63 3.4 W 41 56 22 30 1006.4 - 0.2
16/04:20pm 12.9 1.7 6.1 63 3.4 W 54 63 29 34 1006.8 - 0.2
16/04:10pm 12.8 1.6 5.7 62 3.5 W 54 65 29 35 1006.8 - 0.2
16/04:00pm 13.2 3.3 6.8 65 3.2 W 48 65 26 35 1006.4 - 0.2
16/03:50pm 12.9 2.2 6.6 65 3.1 W 52 57 28 31 1006.3 - 0.2
16/03:40pm 12.8 3.2 6.4 65 3.2 W 46 56 25 30 1006.8 - 0.2
16/03:30pm 12.8 2.9 6.4 65 3.2 W 48 57 26 31 1006.3 - 0.2
16/03:20pm 12.3 2.2 7.4 72 2.5 W 50 57 27 31 1006.5 - 0.2
16/03:10pm 12.6 3.2 7.1 69 2.8 W 46 50 25 27 1006.3 - 0.2
16/03:00pm 12.6 2.8 7.1 69 2.8 W 48 56 26 30 1005.9 - 0.2
16/02:50pm 12.5 3.2 7.5 71 2.5 W 46 57 25 31 1005.9 - 0.2
16/02:40pm 12.2 1.2 7.0 70 2.6 W 54 57 29 31 1006.1 - 0.2
16/02:30pm 12.5 3.2 7.4 71 2.6 W 46 54 25 29 1006.3 - 0.2
16/02:20pm 11.8 1.7 7.6 75 2.1 W 50 59 27 32 1006.2 - 0.2
16/02:10pm 11.8 0.9 7.2 73 2.3 W 54 67 29 36 1006.1 - 0.2
16/02:00pm 11.8 2.2 7.8 76 2.0 W 48 57 26 31 1006.4 - 0.2
16/01:50pm 11.9 1.3 7.1 72 2.4 W 52 63 28 34 1006.1 - 0.2
16/01:40pm 11.8 1.4 7.6 75 2.1 W 52 56 28 30 1006.1 - 0.2
16/01:30pm 11.2 0.0 7.6 78 1.8 W 56 67 30 36 1007.1 - 0.2
16/01:20pm 11.1 0.7 7.8 80 1.7 W 52 56 28 30 1006.6 - 0.2
16/01:10pm 10.9 -0.6 7.3 78 1.8 W 57 63 31 34 1005.7 - 0.2
16/01:00pm 10.7 -0.1 7.6 81 1.6 W 54 57 29 31 1006.2 - 0.2
16/12:50pm 10.6 1.8 8.2 85 1.2 W 44 50 24 27 1006.1 - 0.2
16/12:40pm 10.3 1.1 7.9 85 1.2 W 46 56 25 30 1006.4 - 0.2
16/12:30pm 10.0 0.0 8.0 87 1.0 W 50 63 27 34 1006.4 - 0.2
16/12:20pm 9.7 0.2 8.5 92 0.6 W 48 54 26 29 1006.1 - 0.2
16/12:10pm 9.8 -0.8 8.5 92 0.7 W 54 59 29 32 1005.7 - 0.2
16/12:00pm 9.6 -1.1 8.0 90 0.8 W 54 61 29 33 1005.8 - 0.2
16/11:50am 9.5 -0.7 8.5 93 0.5 W 52 59 28 32 1005.8 - 0.2
16/11:40am 9.2 -1.9 8.8 97 0.2 W 57 63 31 34 1005.4 - 0.2
16/11:30am 9.4 -0.8 8.5 94 0.5 W 52 59 28 32 1005.8 - 0.2
16/11:20am 9.5 -1.0 8.7 95 0.4 W 54 57 29 31 1005.8 - 0.2
16/11:10am 9.3 -1.3 8.5 95 0.4 W 54 61 29 33 1005.7 - 0.2
16/11:00am 9.4 -0.1 8.4 93 0.5 W 48 59 26 32 1005.9 - 0.0
16/10:50am 9.2 0.5 8.6 96 0.3 W 44 56 24 30 1005.8 - 0.0
16/10:40am 9.1 0.4 8.6 97 0.3 W 44 54 24 29 1005.9 - 0.0
16/10:30am 8.9 0.8 8.8 99 0.1 W 41 46 22 25 1005.8 - 0.0
16/10:20am 8.5 0.0 8.4 99 0.1 W 43 48 23 26 1006.2 - 0.0
16/10:10am 8.2 - 8.8 - - W 37 44 20 24 1005.9 - 0.0
16/10:00am 8.2 - 8.6 - - W 39 44 21 24 1006.0 - 0.0
16/09:50am 8.0 - 8.2 - - W 41 52 22 28 1006.0 - 0.0
16/09:40am 7.7 - 8.7 - - W 37 43 20 23 1005.8 - 0.0
16/09:30am 7.5 - 8.3 - - W 33 44 18 24 1005.8 - 0.0
16/09:20am 7.3 - 8.0 - - W 37 43 20 23 1005.5 - 0.0
16/09:10am 7.2 - 7.9 - - W 32 37 17 20 1005.4 - 0.0
16/09:00am 7.1 - 7.8 - - W 33 37 18 20 1005.1 - 4.6
16/08:50am 6.9 - 7.4 - - WNW 32 44 17 24 1005.1 - 4.6
16/08:40am 6.8 - 7.2 - - W 41 50 22 27 1005.0 - 4.6
16/08:30am 6.7 - 7.0 - - W 37 41 20 22 1005.1 - 4.6
16/08:20am 6.5 - 6.8 - - WNW 33 41 18 22 1005.0 - 4.6
16/08:10am 6.4 - 6.7 - - WNW 32 43 17 23 1005.0 - 4.6
16/08:00am 6.3 - 6.7 - - WNW 33 41 18 22 1004.7 - 4.6
16/07:50am 6.3 - 6.6 - - WNW 32 44 17 24 1004.5 - 4.6
16/07:40am 6.2 - 6.5 - - WNW 37 44 20 24 1004.3 - 4.6
16/07:30am 6.2 - 6.5 - - WNW 41 46 22 25 1004.1 - 4.6
16/07:20am 6.1 - 6.4 - - WNW 37 43 20 23 1003.7 - 4.6
16/07:10am 6.1 - 6.3 - - WNW 35 43 19 23 1003.5 - 4.6
16/07:00am 6.2 - 6.5 - - WNW 37 44 20 24 1003.5 - 4.6
16/06:50am 6.2 - 6.5 - - WNW 35 44 19 24 1003.5 - 4.6
16/06:40am 6.2 - 6.4 - - WNW 35 41 19 22 1003.5 - 4.6
16/06:30am 6.2 - 6.4 - - WNW 33 37 18 20 1003.4 - 4.6
16/06:20am 6.2 - 6.4 - - WNW 33 41 18 22 1003.3 - 4.6
16/06:00am 6.5 - 6.7 - - WNW 35 41 19 22 1002.7 - 4.4
16/05:50am 6.5 - 6.8 - - WNW 35 41 19 22 1002.7 - 4.4
16/05:40am 6.4 - 6.6 - - WNW 32 44 17 24 1002.6 - 4.4
16/05:30am 6.3 - 6.6 - - WNW 32 41 17 22 1002.8 - 4.4
16/05:20am 6.3 - 6.6 - - WNW 33 44 18 24 1002.7 - 4.2
16/05:10am 6.0 - 6.3 - - WNW 26 32 14 17 1002.7 - 4.0
16/05:00am 6.0 - 6.2 - - WNW 33 39 18 21 1002.7 - 3.8
16/04:50am 5.9 - 6.1 - - WNW 30 37 16 20 1002.4 - 3.8
16/04:40am 6.0 - 6.2 - - WNW 35 46 19 25 1002.1 - 3.6
16/04:30am 6.1 - 6.3 - - WNW 35 46 19 25 1002.4 - 3.6
16/04:20am 6.2 -3.4 6.1 99 0.0 W 46 59 25 32 1002.1 - 3.6
16/04:10am 6.1 -4.4 5.7 97 0.2 W 50 57 27 31 1001.6 - 3.6
16/04:00am 6.1 -4.4 5.7 97 0.2 W 50 65 27 35 1001.4 - 3.6
16/03:50am 6.0 -3.4 5.6 97 0.2 W 44 57 24 31 1002.4 - 3.6
16/03:40am 6.0 -3.2 5.6 97 0.2 W 43 57 23 31 1001.8 - 3.6
16/03:30am 6.0 -4.1 5.5 97 0.2 WNW 48 61 26 33 1002.1 - 3.6

Latest Capital City Observations: Canberra | Sydney | Melbourne | Brisbane | Adelaide | Perth | Hobart | Darwin

Other formats

Comma delimited format used in spreadsheet applications
http://www.bom.gov.au/fwo/IDN60903/IDN60903.99763.axf

JavaScript Object Notation format (JSON) in row-major order
http://www.bom.gov.au/fwo/IDN60903/IDN60903.99763.json

Data quality

Most of these data are generated automatically and are frequently updated. Quality checks on data are not normally performed. It is possible for incorrect values to appear. Refer to information at About Latest Weather Observations and please check the disclaimer before using these data.